SAA363 FAOR-FACT
Flight info
| Callsign | SAA363 |
|---|---|
| Flight time | 1h 53m |
| Altitude | 32000 |
| Route | RAGUL3A RAGUL UQ10 DUMDO UZ26 ERDAS ERDAS1C |
| Aircraft | A320/M-SDE3FGHIRWY/LB1 |
Departure
| Time | 2026-05-04 10:44 |
|---|---|
| Airport | O.R. Tambo International Airport (FAOR) |
Arrival
| Time | 2026-05-04 12:38 |
|---|---|
| Airport | Cape Town International Airport (FACT) |
| Time | Latitude | Longitude | Altitude | Speed | Heading |
|---|---|---|---|---|---|
| 2026-05-04 10:29 | -26.13674 | 28.23024 | 5550 ft | 0 kts | 6° |
| 2026-05-04 10:36 | -26.13690 | 28.23022 | 5551 ft | 4 kts | 6° |
| 2026-05-04 10:36 | -26.13712 | 28.23019 | 5549 ft | 3 kts | 6° |
| 2026-05-04 10:37 | -26.13732 | 28.23011 | 5550 ft | 4 kts | 69° |
| 2026-05-04 10:37 | -26.13734 | 28.22985 | 5547 ft | 4 kts | 96° |
| 2026-05-04 10:37 | -26.13733 | 28.22977 | 5547 ft | 0 kts | 96° |
| 2026-05-04 10:39 | -26.13733 | 28.22981 | 5547 ft | 1 kts | 96° |
| 2026-05-04 10:40 | -26.13735 | 28.22996 | 5549 ft | 2 kts | 96° |
| 2026-05-04 10:40 | -26.13737 | 28.23018 | 5547 ft | 3 kts | 96° |
| 2026-05-04 10:40 | -26.13739 | 28.23043 | 5547 ft | 4 kts | 96° |
| 2026-05-04 10:40 | -26.13742 | 28.23075 | 5548 ft | 5 kts | 96° |
| 2026-05-04 10:41 | -26.13748 | 28.23131 | 5549 ft | 8 kts | 96° |
| 2026-05-04 10:41 | -26.13754 | 28.23195 | 5547 ft | 9 kts | 96° |
| 2026-05-04 10:41 | -26.13760 | 28.23263 | 5547 ft | 9 kts | 96° |
| 2026-05-04 10:41 | -26.13789 | 28.23321 | 5547 ft | 9 kts | 149° |
| 2026-05-04 10:42 | -26.13847 | 28.23338 | 5549 ft | 9 kts | 147° |
| 2026-05-04 10:42 | -26.13868 | 28.23393 | 5549 ft | 6 kts | 104° |
| 2026-05-04 10:42 | -26.13880 | 28.23442 | 5556 ft | 9 kts | 104° |
| 2026-05-04 10:42 | -26.13897 | 28.23514 | 5562 ft | 8 kts | 105° |
| 2026-05-04 10:43 | -26.13916 | 28.23588 | 5564 ft | 12 kts | 106° |
| 2026-05-04 10:44 | -26.08839 | 28.25296 | 7415 ft | 177 kts | 11° |
| 2026-05-04 10:45 | -26.07576 | 28.25682 | 7619 ft | 197 kts | 12° |
| 2026-05-04 10:45 | -26.06196 | 28.26064 | 7748 ft | 217 kts | 4° |
| 2026-05-04 10:45 | -26.04618 | 28.26116 | 7896 ft | 238 kts | 350° |
| 2026-05-04 10:45 | -26.02950 | 28.25648 | 8119 ft | 258 kts | 335° |
| 2026-05-04 10:46 | -26.01378 | 28.24591 | 8558 ft | 270 kts | 318° |
| 2026-05-04 10:46 | -26.00144 | 28.23011 | 9269 ft | 273 kts | 301° |
| 2026-05-04 10:46 | -25.99399 | 28.21065 | 10022 ft | 276 kts | 284° |
| 2026-05-04 10:46 | -25.99226 | 28.18913 | 10529 ft | 289 kts | 267° |
| 2026-05-04 10:47 | -25.99522 | 28.16613 | 10678 ft | 312 kts | 262° |
| 2026-05-04 10:47 | -25.99879 | 28.14162 | 10940 ft | 328 kts | 262° |
| 2026-05-04 10:47 | -26.00250 | 28.11638 | 11440 ft | 333 kts | 262° |
| 2026-05-04 10:47 | -26.00624 | 28.09084 | 12066 ft | 336 kts | 262° |
| 2026-05-04 10:49 | -26.08439 | 27.93053 | 15967 ft | 370 kts | 224° |
| 2026-05-04 10:49 | -26.10373 | 27.91199 | 16450 ft | 374 kts | 225° |
| 2026-05-04 10:50 | -26.12350 | 27.89299 | 16940 ft | 377 kts | 225° |
| 2026-05-04 10:51 | -26.26658 | 27.75486 | 20283 ft | 398 kts | 225° |
| 2026-05-04 10:52 | -26.28757 | 27.73464 | 20778 ft | 400 kts | 225° |
| 2026-05-04 10:52 | -26.30877 | 27.71423 | 21257 ft | 402 kts | 225° |
| 2026-05-04 10:52 | -26.32966 | 27.69404 | 21747 ft | 404 kts | 226° |
| 2026-05-04 10:54 | -26.47988 | 27.54689 | 24794 ft | 416 kts | 229° |
| 2026-05-04 10:54 | -26.50077 | 27.52448 | 25153 ft | 417 kts | 229° |
| 2026-05-04 10:56 | -26.64902 | 27.36431 | 27428 ft | 431 kts | 229° |
| 2026-05-04 10:56 | -26.67081 | 27.34106 | 27723 ft | 433 kts | 229° |
| 2026-05-04 10:56 | -26.69258 | 27.31780 | 28032 ft | 435 kts | 229° |
| 2026-05-04 10:57 | -26.71450 | 27.29431 | 28339 ft | 436 kts | 229° |
| 2026-05-04 10:57 | -26.73639 | 27.27079 | 28667 ft | 438 kts | 230° |
| 2026-05-04 10:57 | -26.75851 | 27.24702 | 28976 ft | 440 kts | 230° |
| 2026-05-04 10:57 | -26.78064 | 27.22326 | 29276 ft | 442 kts | 230° |
| 2026-05-04 10:58 | -26.80278 | 27.19946 | 29681 ft | 441 kts | 230° |
| 2026-05-04 10:58 | -26.82483 | 27.17572 | 30126 ft | 439 kts | 230° |
| 2026-05-04 10:58 | -26.84659 | 27.15232 | 30532 ft | 438 kts | 230° |
| 2026-05-04 10:58 | -26.86871 | 27.12851 | 30960 ft | 435 kts | 230° |
| 2026-05-04 10:59 | -26.89044 | 27.10511 | 31409 ft | 432 kts | 230° |
| 2026-05-04 10:59 | -26.91197 | 27.08187 | 31870 ft | 428 kts | 231° |
| 2026-05-04 10:59 | -26.93331 | 27.05880 | 32352 ft | 424 kts | 231° |
| 2026-05-04 10:59 | -26.95419 | 27.03624 | 32828 ft | 421 kts | 231° |
| 2026-05-04 11:00 | -26.97519 | 27.01340 | 33245 ft | 419 kts | 231° |
| 2026-05-04 11:01 | -27.11893 | 26.85453 | 34189 ft | 416 kts | 232° |
| 2026-05-04 11:02 | -27.13953 | 26.83175 | 34181 ft | 416 kts | 232° |
| 2026-05-04 11:05 | -27.44199 | 26.49635 | 34177 ft | 417 kts | 233° |
| 2026-05-04 11:06 | -27.48316 | 26.45039 | 34165 ft | 417 kts | 233° |
| 2026-05-04 11:06 | -27.52417 | 26.40453 | 34156 ft | 417 kts | 233° |
| 2026-05-04 11:10 | -27.81263 | 26.08137 | 34138 ft | 418 kts | 233° |
| 2026-05-04 11:12 | -27.97750 | 25.89539 | 34144 ft | 419 kts | 234° |
| 2026-05-04 11:12 | -28.01875 | 25.84873 | 34141 ft | 419 kts | 234° |
| 2026-05-04 11:13 | -28.05997 | 25.80205 | 34143 ft | 419 kts | 234° |
| 2026-05-04 11:13 | -28.10115 | 25.75535 | 34138 ft | 419 kts | 234° |
| 2026-05-04 11:14 | -28.14209 | 25.70895 | 34159 ft | 419 kts | 234° |
| 2026-05-04 11:16 | -28.30639 | 25.52173 | 34143 ft | 418 kts | 235° |
| 2026-05-04 11:16 | -28.34740 | 25.47495 | 34143 ft | 418 kts | 235° |
| 2026-05-04 11:17 | -28.38816 | 25.42841 | 34142 ft | 418 kts | 235° |
| 2026-05-04 11:19 | -28.55132 | 25.24116 | 34136 ft | 415 kts | 236° |
| 2026-05-04 11:19 | -28.59196 | 25.19445 | 34136 ft | 415 kts | 236° |
| 2026-05-04 11:20 | -28.63257 | 25.14778 | 34130 ft | 415 kts | 236° |
| 2026-05-04 11:20 | -28.67316 | 25.10105 | 34139 ft | 415 kts | 236° |
| 2026-05-04 11:22 | -28.83499 | 24.91385 | 34152 ft | 416 kts | 236° |
| 2026-05-04 11:23 | -28.87568 | 24.86689 | 34147 ft | 415 kts | 236° |
| 2026-05-04 11:25 | -29.01730 | 24.70200 | 34145 ft | 415 kts | 236° |
| 2026-05-04 11:25 | -29.05779 | 24.65486 | 34142 ft | 415 kts | 236° |
| 2026-05-04 11:27 | -29.23944 | 24.44230 | 34150 ft | 415 kts | 237° |
| 2026-05-04 11:28 | -29.27989 | 24.39488 | 34140 ft | 416 kts | 237° |
| 2026-05-04 11:28 | -29.32024 | 24.34746 | 34164 ft | 415 kts | 237° |
| 2026-05-04 11:29 | -29.36023 | 24.30036 | 34161 ft | 415 kts | 238° |
| 2026-05-04 11:29 | -29.40046 | 24.25299 | 34153 ft | 414 kts | 237° |
| 2026-05-04 11:33 | -29.68106 | 23.92090 | 34105 ft | 415 kts | 238° |
| 2026-05-04 11:33 | -29.72126 | 23.87315 | 34088 ft | 415 kts | 238° |
| 2026-05-04 11:34 | -29.76140 | 23.82536 | 34085 ft | 416 kts | 238° |
| 2026-05-04 11:34 | -29.80161 | 23.77740 | 34084 ft | 416 kts | 238° |
| 2026-05-04 11:35 | -29.84183 | 23.72940 | 34093 ft | 416 kts | 238° |
| 2026-05-04 11:35 | -29.88218 | 23.68118 | 34061 ft | 418 kts | 238° |
| 2026-05-04 11:36 | -29.92257 | 23.63277 | 34050 ft | 420 kts | 238° |
| 2026-05-04 11:36 | -29.96279 | 23.58456 | 34034 ft | 421 kts | 238° |
| 2026-05-04 11:37 | -30.00345 | 23.53587 | 34027 ft | 422 kts | 238° |
| 2026-05-04 11:37 | -30.04424 | 23.48700 | 34017 ft | 422 kts | 238° |
| 2026-05-04 11:38 | -30.08497 | 23.43807 | 34020 ft | 422 kts | 238° |
| 2026-05-04 11:38 | -30.12565 | 23.38903 | 34028 ft | 423 kts | 239° |
| 2026-05-04 11:39 | -30.16635 | 23.33987 | 34006 ft | 423 kts | 239° |
| 2026-05-04 11:41 | -30.30896 | 23.16745 | 33989 ft | 425 kts | 239° |
| 2026-05-04 11:41 | -30.34981 | 23.11793 | 33988 ft | 425 kts | 239° |
| 2026-05-04 11:42 | -30.39065 | 23.06830 | 33992 ft | 426 kts | 239° |
| 2026-05-04 11:42 | -30.43150 | 23.01854 | 33980 ft | 426 kts | 239° |
| 2026-05-04 11:43 | -30.47247 | 22.96875 | 33971 ft | 427 kts | 239° |
| 2026-05-04 11:43 | -30.51316 | 22.91922 | 33969 ft | 427 kts | 239° |
| 2026-05-04 11:44 | -30.55406 | 22.86922 | 33989 ft | 427 kts | 239° |
| 2026-05-04 11:44 | -30.59498 | 22.81917 | 33972 ft | 427 kts | 239° |
| 2026-05-04 11:45 | -30.63591 | 22.76905 | 33989 ft | 428 kts | 239° |
| 2026-05-04 11:45 | -30.67690 | 22.71899 | 33965 ft | 428 kts | 239° |
| 2026-05-04 11:46 | -30.71794 | 22.66871 | 33970 ft | 428 kts | 239° |
| 2026-05-04 11:46 | -30.75887 | 22.61837 | 33965 ft | 428 kts | 240° |
| 2026-05-04 11:47 | -30.79979 | 22.56796 | 33957 ft | 429 kts | 240° |
| 2026-05-04 11:47 | -30.84074 | 22.51750 | 33955 ft | 429 kts | 239° |
| 2026-05-04 11:48 | -30.88170 | 22.46701 | 33981 ft | 429 kts | 240° |
| 2026-05-04 11:48 | -30.92250 | 22.41652 | 33943 ft | 426 kts | 240° |
| 2026-05-04 11:49 | -30.96279 | 22.36646 | 33927 ft | 426 kts | 240° |
| 2026-05-04 11:49 | -31.00336 | 22.31603 | 33928 ft | 427 kts | 240° |
| 2026-05-04 11:50 | -31.04399 | 22.26541 | 33928 ft | 427 kts | 240° |
| 2026-05-04 11:50 | -31.08455 | 22.21480 | 33927 ft | 428 kts | 240° |
| 2026-05-04 11:51 | -31.12519 | 22.16408 | 33937 ft | 428 kts | 240° |
| 2026-05-04 11:51 | -31.16587 | 22.11325 | 33956 ft | 428 kts | 240° |
| 2026-05-04 11:52 | -31.20610 | 22.06294 | 33969 ft | 426 kts | 240° |
| 2026-05-04 11:52 | -31.24651 | 22.01226 | 33959 ft | 426 kts | 240° |
| 2026-05-04 11:53 | -31.28697 | 21.96152 | 33952 ft | 426 kts | 240° |
| 2026-05-04 11:53 | -31.32738 | 21.91078 | 33950 ft | 426 kts | 240° |
| 2026-05-04 11:55 | -31.48888 | 21.70717 | 33965 ft | 426 kts | 240° |
| 2026-05-04 11:56 | -31.52914 | 21.65617 | 33998 ft | 426 kts | 240° |
| 2026-05-04 11:56 | -31.56932 | 21.60515 | 33940 ft | 425 kts | 240° |
| 2026-05-04 11:57 | -31.60919 | 21.55446 | 33932 ft | 425 kts | 240° |
| 2026-05-04 11:57 | -31.64954 | 21.50325 | 33937 ft | 426 kts | 240° |
| 2026-05-04 11:58 | -31.68297 | 21.46080 | 33943 ft | 426 kts | 240° |
| 2026-05-04 11:58 | -31.72971 | 21.40122 | 33951 ft | 426 kts | 240° |
| 2026-05-04 11:59 | -31.76656 | 21.35425 | 33952 ft | 426 kts | 240° |
| 2026-05-04 11:59 | -31.80019 | 21.31132 | 33952 ft | 426 kts | 240° |
| 2026-05-04 12:00 | -31.84012 | 21.26032 | 33954 ft | 427 kts | 240° |
| 2026-05-04 12:00 | -31.88034 | 21.20891 | 33985 ft | 426 kts | 241° |
| 2026-05-04 12:01 | -31.92032 | 21.15744 | 33975 ft | 426 kts | 241° |
| 2026-05-04 12:02 | -32.06013 | 20.97763 | 33949 ft | 425 kts | 241° |
| 2026-05-04 12:03 | -32.09976 | 20.92643 | 33953 ft | 426 kts | 241° |
| 2026-05-04 12:03 | -32.13971 | 20.87481 | 33959 ft | 426 kts | 241° |
| 2026-05-04 12:04 | -32.17958 | 20.82316 | 33979 ft | 426 kts | 241° |
| 2026-05-04 12:04 | -32.21950 | 20.77155 | 33979 ft | 424 kts | 242° |
| 2026-05-04 12:05 | -32.25928 | 20.72007 | 33987 ft | 424 kts | 242° |
| 2026-05-04 12:05 | -32.29892 | 20.66849 | 33983 ft | 424 kts | 242° |
| 2026-05-04 12:06 | -32.33861 | 20.61681 | 33990 ft | 424 kts | 242° |
| 2026-05-04 12:06 | -32.37832 | 20.56513 | 34002 ft | 424 kts | 242° |
| 2026-05-04 12:07 | -32.41798 | 20.51339 | 34003 ft | 424 kts | 242° |
| 2026-05-04 12:07 | -32.45736 | 20.46186 | 34057 ft | 424 kts | 242° |
| 2026-05-04 12:08 | -32.49678 | 20.41035 | 33998 ft | 421 kts | 242° |
| 2026-05-04 12:08 | -32.53601 | 20.35895 | 34019 ft | 421 kts | 242° |
| 2026-05-04 12:09 | -32.57536 | 20.30731 | 34009 ft | 422 kts | 242° |
| 2026-05-04 12:09 | -32.61466 | 20.25550 | 34006 ft | 422 kts | 242° |
| 2026-05-04 12:10 | -32.65395 | 20.20377 | 34005 ft | 422 kts | 242° |
| 2026-05-04 12:10 | -32.69328 | 20.15197 | 34007 ft | 423 kts | 242° |
| 2026-05-04 12:11 | -32.73258 | 20.10004 | 34007 ft | 422 kts | 242° |
| 2026-05-04 12:11 | -32.77155 | 20.04853 | 33991 ft | 421 kts | 242° |
| 2026-05-04 12:12 | -32.81064 | 19.99688 | 33944 ft | 415 kts | 242° |
| 2026-05-04 12:12 | -32.82985 | 19.97165 | 33619 ft | 408 kts | 242° |
| 2026-05-04 12:12 | -32.84877 | 19.94672 | 33221 ft | 404 kts | 242° |
| 2026-05-04 12:13 | -32.86746 | 19.92198 | 32770 ft | 400 kts | 243° |
| 2026-05-04 12:14 | -32.99470 | 19.75231 | 29776 ft | 386 kts | 243° |
| 2026-05-04 12:15 | -33.01260 | 19.72846 | 29333 ft | 384 kts | 243° |
| 2026-05-04 12:15 | -33.03047 | 19.70495 | 28925 ft | 384 kts | 242° |
| 2026-05-04 12:15 | -33.04899 | 19.68192 | 28524 ft | 384 kts | 240° |
| 2026-05-04 12:15 | -33.06783 | 19.65940 | 28159 ft | 383 kts | 239° |
| 2026-05-04 12:16 | -33.08672 | 19.63721 | 27825 ft | 381 kts | 239° |
| 2026-05-04 12:16 | -33.10558 | 19.61508 | 27469 ft | 378 kts | 239° |
| 2026-05-04 12:16 | -33.12419 | 19.59309 | 27097 ft | 375 kts | 239° |
| 2026-05-04 12:16 | -33.14257 | 19.57114 | 26730 ft | 372 kts | 239° |
| 2026-05-04 12:17 | -33.16074 | 19.54928 | 26385 ft | 370 kts | 240° |
| 2026-05-04 12:17 | -33.17851 | 19.52778 | 26032 ft | 368 kts | 240° |
| 2026-05-04 12:17 | -33.19642 | 19.50608 | 25678 ft | 366 kts | 240° |
| 2026-05-04 12:17 | -33.21420 | 19.48451 | 25319 ft | 363 kts | 240° |
| 2026-05-04 12:18 | -33.23190 | 19.46307 | 24985 ft | 361 kts | 240° |
| 2026-05-04 12:18 | -33.24939 | 19.44173 | 24757 ft | 355 kts | 242° |
| 2026-05-04 12:18 | -33.26471 | 19.41928 | 24520 ft | 345 kts | 247° |
| 2026-05-04 12:18 | -33.27929 | 19.39654 | 24287 ft | 344 kts | 247° |
| 2026-05-04 12:19 | -33.29383 | 19.37391 | 24080 ft | 342 kts | 247° |
| 2026-05-04 12:19 | -33.30835 | 19.35139 | 23987 ft | 341 kts | 247° |
| 2026-05-04 12:19 | -33.32283 | 19.32892 | 23945 ft | 340 kts | 247° |
| 2026-05-04 12:19 | -33.33722 | 19.30661 | 23580 ft | 338 kts | 247° |
| 2026-05-04 12:20 | -33.35151 | 19.28441 | 23140 ft | 336 kts | 247° |
| 2026-05-04 12:20 | -33.36570 | 19.26233 | 22667 ft | 334 kts | 246° |
| 2026-05-04 12:20 | -33.37979 | 19.24035 | 22117 ft | 333 kts | 246° |
| 2026-05-04 12:20 | -33.39385 | 19.21840 | 21746 ft | 330 kts | 246° |
| 2026-05-04 12:21 | -33.40773 | 19.19674 | 21404 ft | 327 kts | 246° |
| 2026-05-04 12:21 | -33.42256 | 19.17592 | 21067 ft | 331 kts | 240° |
| 2026-05-04 12:21 | -33.43832 | 19.15592 | 20691 ft | 329 kts | 240° |
| 2026-05-04 12:21 | -33.45402 | 19.13609 | 20295 ft | 327 kts | 240° |
| 2026-05-04 12:22 | -33.46964 | 19.11630 | 19949 ft | 325 kts | 240° |
| 2026-05-04 12:22 | -33.48509 | 19.09670 | 19622 ft | 323 kts | 240° |
| 2026-05-04 12:22 | -33.50048 | 19.07716 | 19256 ft | 322 kts | 239° |
| 2026-05-04 12:22 | -33.51559 | 19.05794 | 18921 ft | 320 kts | 239° |
| 2026-05-04 12:23 | -33.53082 | 19.03854 | 18563 ft | 319 kts | 239° |
| 2026-05-04 12:23 | -33.54599 | 19.01919 | 18223 ft | 316 kts | 239° |
| 2026-05-04 12:23 | -33.56087 | 19.00030 | 18045 ft | 308 kts | 239° |
| 2026-05-04 12:23 | -33.57543 | 18.98185 | 17904 ft | 299 kts | 239° |
| 2026-05-04 12:24 | -33.58954 | 18.96394 | 17725 ft | 292 kts | 239° |
| 2026-05-04 12:24 | -33.60334 | 18.94631 | 17415 ft | 289 kts | 239° |
| 2026-05-04 12:24 | -33.61697 | 18.92880 | 17099 ft | 287 kts | 239° |
| 2026-05-04 12:24 | -33.63059 | 18.91129 | 16776 ft | 286 kts | 239° |
| 2026-05-04 12:25 | -33.64412 | 18.89390 | 16458 ft | 284 kts | 239° |
| 2026-05-04 12:25 | -33.65758 | 18.87658 | 16142 ft | 283 kts | 238° |
| 2026-05-04 12:25 | -33.67098 | 18.85933 | 15829 ft | 282 kts | 238° |
| 2026-05-04 12:25 | -33.68431 | 18.84219 | 15523 ft | 281 kts | 238° |
| 2026-05-04 12:26 | -33.69765 | 18.82507 | 15216 ft | 279 kts | 237° |
| 2026-05-04 12:26 | -33.71090 | 18.80810 | 14905 ft | 279 kts | 237° |
| 2026-05-04 12:26 | -33.72413 | 18.79115 | 14610 ft | 278 kts | 237° |
| 2026-05-04 12:26 | -33.73730 | 18.77426 | 14335 ft | 276 kts | 236° |
| 2026-05-04 12:27 | -33.75041 | 18.75745 | 14049 ft | 275 kts | 235° |
| 2026-05-04 12:27 | -33.76345 | 18.74074 | 13749 ft | 273 kts | 235° |
| 2026-05-04 12:27 | -33.77646 | 18.72405 | 13448 ft | 273 kts | 234° |
| 2026-05-04 12:27 | -33.79138 | 18.70999 | 13169 ft | 282 kts | 216° |
| 2026-05-04 12:28 | -33.81023 | 18.70204 | 12889 ft | 294 kts | 195° |
| 2026-05-04 12:28 | -33.83094 | 18.70216 | 12593 ft | 302 kts | 174° |
| 2026-05-04 12:28 | -33.85140 | 18.70839 | 12287 ft | 303 kts | 169° |
| 2026-05-04 12:28 | -33.87167 | 18.71493 | 11987 ft | 301 kts | 169° |
| 2026-05-04 12:29 | -33.89188 | 18.72146 | 11687 ft | 299 kts | 169° |
| 2026-05-04 12:29 | -33.91192 | 18.72792 | 11403 ft | 297 kts | 169° |
| 2026-05-04 12:29 | -33.93173 | 18.73428 | 10982 ft | 293 kts | 169° |
| 2026-05-04 12:29 | -33.95130 | 18.74054 | 10507 ft | 289 kts | 169° |
| 2026-05-04 12:30 | -33.97068 | 18.74672 | 10032 ft | 286 kts | 169° |
| 2026-05-04 12:30 | -33.98982 | 18.75280 | 9550 ft | 283 kts | 169° |
| 2026-05-04 12:30 | -34.00874 | 18.75881 | 9041 ft | 279 kts | 169° |
| 2026-05-04 12:30 | -34.02739 | 18.76475 | 8537 ft | 276 kts | 169° |
| 2026-05-04 12:31 | -34.04592 | 18.77066 | 8076 ft | 273 kts | 169° |
| 2026-05-04 12:31 | -34.06419 | 18.77649 | 7756 ft | 271 kts | 169° |
| 2026-05-04 12:31 | -34.08228 | 18.78227 | 7500 ft | 268 kts | 169° |
| 2026-05-04 12:31 | -34.10000 | 18.78788 | 7230 ft | 256 kts | 172° |
| 2026-05-04 12:32 | -34.11718 | 18.78838 | 7044 ft | 241 kts | 197° |
| 2026-05-04 12:32 | -34.14343 | 18.76775 | 6059 ft | 225 kts | 241° |
| 2026-05-04 12:32 | -34.14951 | 18.75073 | 5546 ft | 220 kts | 261° |
| 2026-05-04 12:33 | -34.15245 | 18.73266 | 5034 ft | 219 kts | 261° |
| 2026-05-04 12:33 | -34.15545 | 18.71460 | 4525 ft | 219 kts | 261° |
| 2026-05-04 12:33 | -34.15624 | 18.69634 | 3984 ft | 218 kts | 278° |
| 2026-05-04 12:33 | -34.15180 | 18.67894 | 3540 ft | 215 kts | 297° |
| 2026-05-04 12:34 | -34.14291 | 18.66478 | 3296 ft | 212 kts | 315° |
| 2026-05-04 12:34 | -34.13070 | 18.65497 | 3048 ft | 212 kts | 333° |
| 2026-05-04 12:34 | -34.11658 | 18.64978 | 2780 ft | 211 kts | 341° |
| 2026-05-04 12:34 | -34.10260 | 18.64539 | 2492 ft | 202 kts | 340° |
| 2026-05-04 12:35 | -34.08957 | 18.64127 | 2269 ft | 191 kts | 341° |
| 2026-05-04 12:35 | -34.07696 | 18.63726 | 1983 ft | 182 kts | 340° |
| 2026-05-04 12:35 | -34.06523 | 18.63354 | 1756 ft | 164 kts | 340° |
| 2026-05-04 12:35 | -34.05492 | 18.63028 | 1526 ft | 145 kts | 339° |
| 2026-05-04 12:36 | -34.04537 | 18.62723 | 1329 ft | 140 kts | 341° |
| 2026-05-04 12:36 | -34.03600 | 18.62424 | 1143 ft | 140 kts | 341° |
| 2026-05-04 12:36 | -34.02664 | 18.62126 | 967 ft | 139 kts | 341° |
| 2026-05-04 12:36 | -34.01740 | 18.61832 | 785 ft | 134 kts | 343° |
| 2026-05-04 12:37 | -34.00833 | 18.61544 | 621 ft | 134 kts | 343° |
| 2026-05-04 12:37 | -33.99935 | 18.61258 | 457 ft | 132 kts | 342° |
| 2026-05-04 12:37 | -33.99042 | 18.60974 | 251 ft | 134 kts | 343° |
| 2026-05-04 12:37 | -33.98176 | 18.60713 | 156 ft | 117 kts | 342° |
| 2026-05-04 12:38 | -33.97542 | 18.60496 | 150 ft | 62 kts | 345° |
| 2026-05-04 12:38 | -33.97317 | 18.60429 | 151 ft | 27 kts | 345° |
| 2026-05-04 12:38 | -33.97180 | 18.60377 | 155 ft | 15 kts | 337° |
| 2026-05-04 12:38 | -33.97115 | 18.60286 | 157 ft | 14 kts | 288° |
| 2026-05-04 12:39 | -33.97088 | 18.60184 | 161 ft | 9 kts | 286° |
| 2026-05-04 12:39 | -33.97073 | 18.60119 | 164 ft | 8 kts | 285° |
| 2026-05-04 12:39 | -33.97057 | 18.60044 | 164 ft | 10 kts | 284° |
| 2026-05-04 12:39 | -33.97039 | 18.59962 | 164 ft | 9 kts | 289° |